Time;durP1;ratioP1;P1;durP2;ratioP2;P2;SDS_P1;SDS_P2;PMS_P1;PMS_P2;Temp;Humidity;BMP_temperature;BMP_pressure;BME280_temperature;BME280_humidity;BME280_pressure;Samples;Min_cycle;Max_cycle;Signal;HPM_P1;HPM_P2
2021/04/07 00:01:58;;;;;;;1.88;1.63;;;17.40;49.20;;;;;;4867700;29;20273;-72
2021/04/07 00:04:23;;;;;;;2.63;1.80;;;17.30;49.20;;;;;;4883515;29;20172;-72
2021/04/07 00:06:49;;;;;;;3.40;1.60;;;17.30;49.20;;;;;;4900477;29;20177;-73
2021/04/07 00:09:15;;;;;;;3.53;1.70;;;17.30;49.20;;;;;;4867781;29;20517;-72
2021/04/07 00:11:40;;;;;;;3.00;1.60;;;17.30;49.20;;;;;;4867808;29;20236;-73
2021/04/07 00:14:08;;;;;;;2.78;1.52;;;17.30;49.20;;;;;;4883516;29;20188;-71
2021/04/07 00:16:33;;;;;;;3.97;1.90;;;17.30;49.20;;;;;;4852007;29;20699;-73
2021/04/07 00:18:59;;;;;;;1.77;1.40;;;17.30;49.20;;;;;;4900353;29;20177;-71
2021/04/07 00:21:24;;;;;;;3.63;1.70;;;17.20;49.10;;;;;;4883302;29;20196;-70
2021/04/07 00:23:50;;;;;;;3.17;1.50;;;17.20;49.10;;;;;;4882756;29;20176;-72
2021/04/07 00:26:16;;;;;;;3.38;1.67;;;17.20;49.20;;;;;;4867770;29;20671;-70
2021/04/07 00:28:41;;;;;;;2.85;1.70;;;17.20;49.20;;;;;;4899764;29;20660;-71
2021/04/07 00:31:07;;;;;;;3.67;1.92;;;17.20;49.20;;;;;;4882653;29;20250;-72
2021/04/07 00:33:32;;;;;;;3.13;1.52;;;17.20;49.20;;;;;;4883076;29;20176;-73
2021/04/07 00:35:58;;;;;;;2.97;1.50;;;17.10;49.10;;;;;;4867651;29;20184;-72
2021/04/07 00:38:23;;;;;;;3.47;1.63;;;17.20;49.10;;;;;;4899097;29;20604;-71
2021/04/07 00:40:49;;;;;;;4.30;1.58;;;17.20;49.20;;;;;;4899779;29;20180;-72
2021/04/07 00:43:14;;;;;;;3.08;1.65;;;17.10;49.10;;;;;;4867919;29;20187;-74
2021/04/07 00:45:40;;;;;;;1.98;1.40;;;17.10;49.10;;;;;;4882056;29;20596;-71
2021/04/07 00:48:06;;;;;;;3.50;1.50;;;17.10;49.10;;;;;;4883077;29;20180;-70
2021/04/07 00:50:32;;;;;;;3.75;1.40;;;17.10;49.10;;;;;;4882293;29;20649;-68
2021/04/07 00:52:57;;;;;;;3.28;1.50;;;17.10;49.10;;;;;;4882874;29;20208;-69
2021/04/07 00:55:25;;;;;;;2.22;1.30;;;17.10;49.10;;;;;;4867247;29;20183;-71
2021/04/07 00:57:51;;;;;;;1.88;1.10;;;17.10;49.10;;;;;;4882394;29;20607;-73
2021/04/07 01:00:17;;;;;;;2.58;1.70;;;17.00;49.10;;;;;;4867111;29;20192;-73
2021/04/07 01:02:43;;;;;;;3.13;1.33;;;17.00;49.10;;;;;;4899217;29;20219;-73
2021/04/07 01:05:10;;;;;;;2.75;1.45;;;17.10;49.80;;;;;;4881944;29;20200;-72
2021/04/07 01:07:36;;;;;;;1.80;1.30;;;17.00;49.10;;;;;;4882631;29;20180;-72
2021/04/07 01:10:05;;;;;;;3.55;1.70;;;17.00;49.10;;;;;;4867031;29;20577;-72
2021/04/07 01:12:30;;;;;;;2.45;1.30;;;17.00;49.10;;;;;;4881729;29;20228;-71
2021/04/07 01:14:56;;;;;;;2.33;1.35;;;17.00;49.10;;;;;;4866980;29;20656;-71
2021/04/07 01:17:21;;;;;;;2.45;1.15;;;17.00;49.10;;;;;;4882175;29;20184;-72
2021/04/07 01:19:47;;;;;;;2.10;1.20;;;16.90;49.10;;;;;;4866358;29;20180;-72
2021/04/07 01:22:16;;;;;;;2.33;1.30;;;16.90;49.00;;;;;;4866975;29;20184;-70
2021/04/07 01:24:41;;;;;;;3.05;1.27;;;17.00;49.10;;;;;;4851095;29;20181;-71
2021/04/07 01:27:07;;;;;;;3.00;1.25;;;16.90;49.10;;;;;;4866322;29;20196;-70
2021/04/07 01:29:32;;;;;;;1.77;1.48;;;16.90;49.00;;;;;;4882036;29;20177;-71
2021/04/07 01:31:58;;;;;;;2.50;1.20;;;16.90;49.00;;;;;;4882285;29;20177;-72
2021/04/07 01:34:28;;;;;;;2.40;1.13;;;16.90;49.00;;;;;;4898171;29;20199;-72
2021/04/07 01:36:54;;;;;;;2.50;1.20;;;16.90;49.10;;;;;;4866775;29;20267;-72
2021/04/07 01:39:21;;;;;;;2.63;1.45;;;16.90;49.70;;;;;;4866307;29;20272;-71
2021/04/07 01:41:47;;;;;;;2.35;1.23;;;16.90;49.10;;;;;;4865758;29;20192;-72
2021/04/07 01:44:14;;;;;;;2.72;1.38;;;16.90;49.10;;;;;;4866672;29;20180;-72
2021/04/07 01:46:39;;;;;;;2.85;1.45;;;16.80;49.00;;;;;;4882101;29;20188;-72
2021/04/07 01:49:07;;;;;;;2.28;1.20;;;16.80;49.00;;;;;;4850456;29;20173;-70
2021/04/07 01:51:33;;;;;;;2.92;1.38;;;16.80;49.00;;;;;;4898418;29;20219;-69
2021/04/07 01:54:06;;;;;;;2.05;1.20;;;16.80;49.00;;;;;;4865647;29;20176;-74
2021/04/07 01:56:31;;;;;;;2.58;1.30;;;16.80;49.10;;;;;;4898400;29;20199;-74
2021/04/07 01:59:01;;;;;;;1.48;1.02;;;16.80;49.10;;;;;;4882762;29;20625;-72
2021/04/07 02:01:27;;;;;;;2.38;1.20;;;16.80;49.10;;;;;;4881819;29;20537;-73
2021/04/07 02:03:53;;;;;;;1.70;1.00;;;16.80;49.10;;;;;;4866180;29;20644;-75
2021/04/07 02:06:19;;;;;;;1.48;1.20;;;16.80;49.10;;;;;;4881663;29;20179;-73
2021/04/07 02:08:44;;;;;;;1.58;0.95;;;16.70;49.00;;;;;;4897783;29;20180;-73
2021/04/07 02:11:10;;;;;;;2.05;1.13;;;16.70;49.80;;;;;;4880817;29;20235;-72
2021/04/07 02:13:36;;;;;;;2.45;1.10;;;16.70;49.20;;;;;;4865601;29;20176;-73
2021/04/07 02:16:12;;;;;;;1.85;1.05;;;16.70;49.20;;;;;;4880896;29;20574;-73
2021/04/07 02:18:38;;;;;;;2.55;1.27;;;16.70;49.20;;;;;;4882220;29;20244;-72
2021/04/07 02:21:03;;;;;;;1.60;1.00;;;16.70;49.20;;;;;;4881535;29;20220;-72
2021/04/07 02:23:29;;;;;;;2.30;1.20;;;16.70;49.10;;;;;;4880564;29;20185;-72
2021/04/07 02:25:55;;;;;;;2.35;1.20;;;16.70;49.20;;;;;;4881104;29;20176;-72
2021/04/07 02:28:20;;;;;;;1.55;1.30;;;16.70;49.20;;;;;;4881407;29;20637;-71
2021/04/07 02:30:46;;;;;;;1.75;1.00;;;16.70;49.20;;;;;;4880642;29;20680;-73
2021/04/07 02:33:11;;;;;;;2.42;1.20;;;16.70;49.20;;;;;;4898003;29;20283;-72
2021/04/07 02:35:37;;;;;;;2.80;1.50;;;16.70;49.20;;;;;;4897599;29;20181;-74
2021/04/07 02:38:03;;;;;;;2.25;1.25;;;16.60;49.20;;;;;;4880507;29;20190;-72
2021/04/07 02:40:28;;;;;;;1.17;0.85;;;16.60;49.20;;;;;;4897601;29;20183;-70
2021/04/07 02:42:54;;;;;;;1.75;1.10;;;16.60;49.20;;;;;;4897734;29;20177;-72
2021/04/07 02:45:19;;;;;;;3.13;1.35;;;16.60;49.20;;;;;;4864816;29;20688;-71
2021/04/07 02:47:45;;;;;;;1.67;0.90;;;16.60;49.20;;;;;;4898160;29;20173;-71
2021/04/07 02:50:11;;;;;;;1.52;1.10;;;16.60;49.10;;;;;;4897494;29;20752;-70
2021/04/07 02:52:37;;;;;;;2.22;1.23;;;16.60;49.20;;;;;;4897497;29;20329;-70
2021/04/07 02:55:03;;;;;;;2.83;1.00;;;16.50;49.10;;;;;;4897404;29;20210;-72
2021/04/07 02:57:28;;;;;;;1.98;1.02;;;16.60;49.20;;;;;;4849300;29;20215;-72
2021/04/07 02:59:54;;;;;;;1.75;0.98;;;16.60;49.20;;;;;;4880979;29;20220;-73
2021/04/07 03:02:20;;;;;;;1.23;1.00;;;16.50;49.20;;;;;;4880604;29;20177;-74
2021/04/07 03:04:45;;;;;;;1.95;1.00;;;16.50;49.20;;;;;;4896982;29;20176;-73
2021/04/07 03:07:11;;;;;;;1.38;1.15;;;16.60;49.20;;;;;;4880821;29;20540;-74
2021/04/07 03:09:36;;;;;;;1.30;0.90;;;16.50;49.20;;;;;;4897265;29;20259;-72
2021/04/07 03:12:02;;;;;;;2.47;1.20;;;16.50;49.20;;;;;;4881986;29;20239;-72
2021/04/07 03:14:28;;;;;;;2.00;1.10;;;16.50;49.20;;;;;;4897238;29;20185;-71
2021/04/07 03:16:53;;;;;;;2.33;1.10;;;16.50;49.20;;;;;;4880549;29;20177;-72
2021/04/07 03:19:19;;;;;;;1.52;1.13;;;16.50;49.20;;;;;;4896888;29;20693;-72
2021/04/07 03:21:44;;;;;;;1.63;1.05;;;16.50;49.20;;;;;;4866418;29;20184;-72
2021/04/07 03:24:10;;;;;;;1.70;0.93;;;16.40;49.10;;;;;;4884360;29;20188;-73
2021/04/07 03:26:36;;;;;;;2.58;1.10;;;16.50;49.20;;;;;;4883671;29;20521;-71
2021/04/07 03:29:01;;;;;;;2.03;1.05;;;16.40;49.80;;;;;;4884302;29;20221;-71
2021/04/07 03:31:27;;;;;;;2.17;1.40;;;16.40;49.20;;;;;;4884245;29;20222;-73
2021/04/07 03:33:53;;;;;;;1.38;0.95;;;16.40;49.20;;;;;;4883780;29;20179;-75
2021/04/07 03:36:18;;;;;;;1.42;1.08;;;16.40;49.80;;;;;;4884371;29;20652;-72
2021/04/07 03:38:44;;;;;;;1.58;0.80;;;16.40;49.10;;;;;;4900994;29;20176;-71
2021/04/07 03:41:09;;;;;;;2.20;1.17;;;16.40;49.40;;;;;;4900260;29;20263;-71
2021/04/07 03:43:35;;;;;;;1.52;0.98;;;16.40;49.20;;;;;;4900757;29;20239;-74
2021/04/07 03:46:01;;;;;;;1.25;0.73;;;16.40;49.20;;;;;;4869375;29;20181;-71
2021/04/07 03:48:28;;;;;;;1.35;0.85;;;16.40;49.20;;;;;;4900482;29;20554;-69
2021/04/07 03:50:53;;;;;;;1.40;0.70;;;16.40;49.20;;;;;;4884165;29;20211;-69
2021/04/07 03:53:19;;;;;;;1.23;0.90;;;16.40;49.10;;;;;;4883380;29;20181;-69
2021/04/07 03:55:46;;;;;;;1.88;1.10;;;16.30;49.10;;;;;;4883784;29;20257;-74
2021/04/07 03:58:12;;;;;;;1.60;0.93;;;16.30;49.10;;;;;;4868569;29;20184;-72
2021/04/07 04:00:37;;;;;;;1.63;0.77;;;16.30;49.20;;;;;;4867584;29;20184;-72
2021/04/07 04:03:03;;;;;;;1.77;0.98;;;16.30;49.20;;;;;;4883711;29;20177;-73
2021/04/07 04:05:29;;;;;;;1.67;0.70;;;16.30;49.20;;;;;;4868079;29;20537;-72
2021/04/07 04:07:54;;;;;;;1.60;0.80;;;16.30;49.20;;;;;;4882960;29;20205;-73
2021/04/07 04:10:20;;;;;;;2.03;0.80;;;16.30;49.20;;;;;;4867897;29;20287;-71
2021/04/07 04:12:46;;;;;;;2.22;1.23;;;16.30;49.20;;;;;;4883628;29;20584;-73
2021/04/07 04:15:12;;;;;;;1.50;0.98;;;16.20;49.20;;;;;;4883049;29;20184;-72
2021/04/07 04:17:38;;;;;;;1.75;1.13;;;16.30;49.20;;;;;;4900079;29;20184;-76
2021/04/07 04:20:05;;;;;;;1.20;0.93;;;16.20;49.10;;;;;;4883941;29;20180;-71
2021/04/07 04:22:32;;;;;;;1.35;0.90;;;16.20;49.20;;;;;;4882452;29;20184;-70
2021/04/07 04:24:58;;;;;;;0.98;0.60;;;16.20;49.20;;;;;;4883576;29;20712;-72
2021/04/07 04:27:23;;;;;;;1.70;0.93;;;16.20;49.20;;;;;;4867603;29;20268;-73
2021/04/07 04:29:49;;;;;;;1.40;0.75;;;16.20;49.20;;;;;;4882719;29;20235;-73
2021/04/07 04:32:14;;;;;;;0.82;0.77;;;16.20;49.80;;;;;;4883291;29;20221;-72
2021/04/07 04:34:40;;;;;;;2.08;0.80;;;16.20;49.80;;;;;;4866707;29;20211;-72
2021/04/07 04:37:05;;;;;;;1.42;0.95;;;16.20;49.20;;;;;;4899488;29;20225;-72
2021/04/07 04:39:31;;;;;;;1.17;0.85;;;16.20;49.20;;;;;;4883047;29;20189;-71
2021/04/07 04:41:57;;;;;;;1.55;1.00;;;16.10;49.20;;;;;;4867467;29;20271;-74
2021/04/07 04:44:22;;;;;;;1.20;0.90;;;16.20;49.20;;;;;;4883133;29;20263;-71
2021/04/07 04:46:48;;;;;;;2.15;0.90;;;16.10;49.20;;;;;;4883427;29;20226;-72
2021/04/07 04:49:13;;;;;;;0.70;0.70;;;16.10;49.20;;;;;;4884041;29;20264;-70
2021/04/07 04:51:39;;;;;;;1.15;0.88;;;16.20;49.90;;;;;;4882368;29;20227;-70
2021/04/07 04:54:05;;;;;;;1.30;0.88;;;16.10;49.20;;;;;;4882851;29;20267;-73
2021/04/07 04:56:31;;;;;;;1.10;0.80;;;16.10;49.20;;;;;;4899604;29;20184;-70
2021/04/07 04:58:56;;;;;;;1.35;0.75;;;16.10;49.20;;;;;;4882811;29;20673;-71
2021/04/07 05:01:22;;;;;;;1.05;0.77;;;16.10;49.20;;;;;;4899580;29;20286;-74
2021/04/07 05:03:47;;;;;;;1.77;0.80;;;16.10;49.20;;;;;;4882308;29;20168;-73
2021/04/07 05:06:13;;;;;;;0.65;0.57;;;16.10;49.20;;;;;;4882989;29;20232;-72
2021/04/07 05:08:39;;;;;;;1.83;0.93;;;16.10;49.20;;;;;;4882519;29;20550;-73
2021/04/07 05:11:04;;;;;;;1.63;1.10;;;16.10;49.10;;;;;;4866472;29;20215;-73
2021/04/07 05:13:30;;;;;;;1.00;0.65;;;16.20;49.20;;;;;;4866871;29;20193;-72
2021/04/07 05:15:55;;;;;;;1.17;0.70;;;16.30;49.30;;;;;;4882632;29;20177;-75
2021/04/07 05:18:23;;;;;;;1.35;0.77;;;16.40;49.10;;;;;;4899554;29;20169;-73
2021/04/07 05:20:48;;;;;;;1.92;0.80;;;16.70;49.40;;;;;;4867764;29;20201;-73
2021/04/07 05:23:14;;;;;;;2.15;1.17;;;17.10;48.50;;;;;;4882896;29;20635;-74
2021/04/07 05:25:39;;;;;;;1.25;0.73;;;17.40;48.00;;;;;;4866054;29;20184;-73
2021/04/07 05:28:06;;;;;;;0.50;0.47;;;17.60;47.70;;;;;;4899121;29;20689;-73
2021/04/07 05:33:16;;;;;;;1.17;0.70;;;18.30;46.30;;;;;;4884372;29;20187;-72
2021/04/07 05:35:42;;;;;;;1.92;0.70;;;18.50;46.00;;;;;;4881900;29;20169;-72
2021/04/07 05:38:08;;;;;;;0.57;0.50;;;18.60;45.60;;;;;;4866680;29;20652;-72
2021/04/07 05:40:33;;;;;;;1.20;1.00;;;18.70;45.60;;;;;;4898005;29;20224;-71
2021/04/07 05:43:03;;;;;;;2.75;0.88;;;18.80;45.50;;;;;;4866587;29;20659;-76
2021/04/07 05:45:30;;;;;;;1.08;0.60;;;18.80;45.50;;;;;;4850569;29;20181;-73
2021/04/07 05:47:55;;;;;;;0.98;0.80;;;18.80;45.40;;;;;;4899027;29;20343;-71
2021/04/07 05:50:21;;;;;;;0.55;0.55;;;18.80;45.60;;;;;;4882023;29;20288;-68
2021/04/07 05:52:50;;;;;;;0.88;0.73;;;18.70;45.70;;;;;;4899192;29;20180;-68
2021/04/07 05:55:19;;;;;;;1.73;0.75;;;18.60;45.80;;;;;;4898293;29;20176;-69
2021/04/07 05:58:01;;;;;;;0.93;0.57;;;18.50;46.00;;;;;;4900150;29;20177;-72
2021/04/07 06:00:27;;;;;;;0.82;0.70;;;18.50;46.10;;;;;;4881720;29;20263;-72
2021/04/07 06:03:00;;;;;;;0.80;0.50;;;18.40;46.10;;;;;;4867448;29;20207;-72
2021/04/07 06:05:29;;;;;;;0.70;0.60;;;18.40;46.30;;;;;;4866421;29;20709;-73
2021/04/07 06:08:01;;;;;;;1.45;0.55;;;18.40;46.30;;;;;;5074698;27;1050181;-74
2021/04/07 06:10:27;;;;;;;0.95;0.75;;;18.40;46.30;;;;;;5092412;28;20181;-75
2021/04/07 06:12:53;;;;;;;0.50;0.50;;;18.40;46.30;;;;;;5092167;28;20169;-72
2021/04/07 06:15:19;;;;;;;1.05;0.60;;;18.50;46.30;;;;;;5074676;28;20776;-75
2021/04/07 06:17:53;;;;;;;1.13;0.65;;;18.40;46.20;;;;;;5076092;28;20264;-76
2021/04/07 06:20:18;;;;;;;0.68;0.52;;;18.50;46.30;;;;;;5093560;28;20173;-72
2021/04/07 06:22:44;;;;;;;0.50;0.50;;;18.50;46.30;;;;;;5074844;28;20628;-74
2021/04/07 06:25:10;;;;;;;0.65;0.50;;;18.60;46.20;;;;;;5110099;28;20177;-72
2021/04/07 06:27:35;;;;;;;1.05;0.65;;;18.50;46.40;;;;;;5109887;28;20262;-68
2021/04/07 06:30:01;;;;;;;0.80;0.55;;;18.60;46.30;;;;;;5074617;28;20173;-63
2021/04/07 06:32:28;;;;;;;1.00;0.52;;;18.50;46.40;;;;;;5109948;28;20499;-70
2021/04/07 06:34:53;;;;;;;1.30;0.70;;;18.60;46.40;;;;;;5094516;28;20173;-68
2021/04/07 06:37:19;;;;;;;3.03;0.70;;;18.60;46.60;;;;;;5081450;28;20181;-70
2021/04/07 06:39:45;;;;;;;1.42;0.70;;;18.60;47.50;;;;;;5118807;28;20165;-67
2021/04/07 06:42:10;;;;;;;1.20;0.70;;;18.70;46.90;;;;;;5090884;28;20177;-68
2021/04/07 06:44:36;;;;;;;1.67;0.60;;;18.70;47.00;;;;;;5111955;28;20165;-67
2021/04/07 06:47:03;;;;;;;1.38;0.80;;;18.70;47.00;;;;;;5111954;28;20279;-66
2021/04/07 06:49:29;;;;;;;0.45;0.45;;;18.80;47.00;;;;;;5077126;28;20790;-66
2021/04/07 06:51:55;;;;;;;0.55;0.35;;;18.80;46.90;;;;;;5078030;28;20272;-73
2021/04/07 06:54:22;;;;;;;1.90;0.65;;;18.80;47.10;;;;;;5094799;28;20247;-67
2021/04/07 06:56:49;;;;;;;1.05;0.60;;;18.70;47.10;;;;;;5111273;28;20173;-67
2021/04/07 06:59:14;;;;;;;0.73;0.40;;;18.70;47.20;;;;;;5112042;28;20176;-71
2021/04/07 07:01:40;;;;;;;1.08;0.43;;;18.70;47.40;;;;;;5111503;28;20169;-73
2021/04/07 07:04:05;;;;;;;0.68;0.60;;;18.60;47.50;;;;;;5111136;28;20243;-73
2021/04/07 07:06:31;;;;;;;0.93;0.70;;;18.50;47.60;;;;;;5129583;28;20232;-67
2021/04/07 07:08:57;;;;;;;1.77;0.43;;;18.50;47.90;;;;;;5111778;28;20161;-71
2021/04/07 07:11:22;;;;;;;0.85;0.70;;;18.50;47.90;;;;;;5110850;28;20726;-66
2021/04/07 07:13:49;;;;;;;0.57;0.57;;;18.50;47.90;;;;;;5111356;28;20173;-69
2021/04/07 07:16:27;;;;;;;0.40;0.40;;;18.50;47.90;;;;;;5111590;28;20173;-67
2021/04/07 07:18:53;;;;;;;0.70;0.57;;;18.50;47.90;;;;;;5100559;28;20169;-67
2021/04/07 07:21:19;;;;;;;1.67;0.60;;;18.50;47.90;;;;;;5097680;28;20628;-67
2021/04/07 07:23:48;;;;;;;0.40;0.40;;;18.60;47.90;;;;;;5081091;28;20188;-68
2021/04/07 07:26:15;;;;;;;0.52;0.52;;;18.60;47.90;;;;;;5096946;28;20205;-67
2021/04/07 07:28:42;;;;;;;0.73;0.57;;;18.60;47.90;;;;;;5115624;28;20162;-66
2021/04/07 07:31:30;;;;;;;0.68;0.60;;;18.60;47.80;;;;;;5097811;28;20165;-74
2021/04/07 07:34:00;;;;;;;1.60;0.60;;;18.60;48.00;;;;;;5082300;28;20532;-69
2021/04/07 07:36:26;;;;;;;1.60;0.60;;;18.50;48.20;;;;;;5097242;28;20536;-73
2021/04/07 07:38:53;;;;;;;0.77;0.65;;;18.50;48.20;;;;;;5115001;28;20248;-71
2021/04/07 07:41:23;;;;;;;0.75;0.50;;;18.50;48.90;;;;;;5097308;28;20176;-68
2021/04/07 07:43:49;;;;;;;0.95;0.60;;;18.50;48.20;;;;;;5097679;28;20541;-63
2021/04/07 07:46:20;;;;;;;0.80;0.50;;;18.50;48.40;;;;;;5114618;28;20204;-72
2021/04/07 07:48:47;;;;;;;1.48;0.70;;;18.50;48.60;;;;;;5080971;28;20168;-66
2021/04/07 07:51:18;;;;;;;0.85;0.52;;;18.50;48.60;;;;;;5097413;28;20196;-66
2021/04/07 07:53:45;;;;;;;2.70;0.95;;;18.50;48.50;;;;;;5114728;28;20541;-64
2021/04/07 07:56:14;;;;;;;3.08;0.90;;;18.50;48.60;;;;;;5097415;28;20161;-63
2021/04/07 07:58:50;;;;;;;1.10;0.60;;;18.50;48.90;;;;;;5097260;28;20294;-66
2021/04/07 08:01:17;;;;;;;2.28;0.70;;;18.40;48.90;;;;;;5096495;28;20168;-65
2021/04/07 08:03:44;;;;;;;2.00;0.60;;;18.30;49.00;;;;;;5096913;28;20194;-72
2021/04/07 08:06:10;;;;;;;1.55;0.70;;;18.30;49.20;;;;;;5114880;28;20197;-64
2021/04/07 08:08:35;;;;;;;1.70;0.77;;;18.20;49.30;;;;;;5096135;28;20173;-69
2021/04/07 08:11:02;;;;;;;1.70;0.70;;;18.20;49.40;;;;;;5080058;28;20172;-64
2021/04/07 08:13:38;;;;;;;2.10;1.15;;;18.20;49.40;;;;;;5079469;28;20169;-66
2021/04/07 08:16:05;;;;;;;0.85;0.47;;;18.20;49.40;;;;;;5114920;28;20176;-65
2021/04/07 08:18:31;;;;;;;0.65;0.60;;;18.30;49.40;;;;;;5079690;28;20197;-65
2021/04/07 08:20:57;;;;;;;1.27;0.85;;;18.30;49.30;;;;;;5079146;28;20201;-65
2021/04/07 08:23:23;;;;;;;1.05;0.70;;;18.30;49.30;;;;;;5079584;28;20606;-65
2021/04/07 08:25:54;;;;;;;0.93;0.60;;;18.30;49.30;;;;;;5114479;28;20240;-65
2021/04/07 08:28:20;;;;;;;2.22;0.55;;;18.30;49.40;;;;;;5095667;28;20177;-70
2021/04/07 08:30:46;;;;;;;2.05;0.50;;;18.30;49.70;;;;;;5078115;28;20633;-62
2021/04/07 08:33:11;;;;;;;1.35;0.70;;;18.20;49.40;;;;;;5096141;28;20183;-73
2021/04/07 08:35:37;;;;;;;2.85;0.75;;;18.10;49.70;;;;;;5078593;28;20180;-66
2021/04/07 08:38:06;;;;;;;1.60;0.70;;;18.10;49.60;;;;;;5079344;28;20201;-77
2021/04/07 08:40:45;;;;;;;2.47;0.90;;;18.20;49.50;;;;;;5096088;28;20214;-71
2021/04/07 08:43:12;;;;;;;1.65;0.85;;;18.20;49.30;;;;;;5095459;28;20561;-66
2021/04/07 08:45:48;;;;;;;2.03;0.75;;;18.30;49.80;;;;;;5113833;28;20165;-73
2021/04/07 08:48:25;;;;;;;1.33;0.70;;;18.40;49.00;;;;;;5096152;28;20550;-66
2021/04/07 08:51:05;;;;;;;1.75;0.60;;;18.40;48.90;;;;;;5096887;28;20172;-66
2021/04/07 08:53:32;;;;;;;1.10;0.63;;;18.30;49.00;;;;;;5095727;28;20165;-78
2021/04/07 08:55:58;;;;;;;2.15;0.70;;;18.30;49.70;;;;;;5095219;28;20620;-80
2021/04/07 08:58:26;;;;;;;1.20;0.73;;;18.30;49.60;;;;;;5078486;28;20188;-64
2021/04/07 09:00:56;;;;;;;2.25;0.95;;;18.30;49.10;;;;;;5095771;28;20200;-70
2021/04/07 09:03:27;;;;;;;2.55;0.90;;;18.20;49.20;;;;;;5061317;28;20519;-73
2021/04/07 09:05:53;;;;;;;1.88;0.82;;;18.20;49.40;;;;;;5113339;28;20263;-67
2021/04/07 09:08:23;;;;;;;1.65;1.02;;;18.20;50.00;;;;;;5061686;28;20674;-63
2021/04/07 09:10:50;;;;;;;1.80;0.82;;;18.20;49.40;;;;;;5095589;28;20173;-67
2021/04/07 09:13:24;;;;;;;3.90;1.25;;;18.30;49.40;;;;;;5095694;28;20193;-64
2021/04/07 09:16:00;;;;;;;3.60;1.10;;;18.20;49.40;;;;;;5078538;28;20627;-69
2021/04/07 09:18:42;;;;;;;2.78;1.25;;;18.20;49.30;;;;;;5112750;28;20172;-76
2021/04/07 09:21:20;;;;;;;2.60;1.08;;;18.20;49.40;;;;;;5095319;28;20169;-71
2021/04/07 09:23:58;;;;;;;4.07;0.82;;;18.30;49.40;;;;;;5080113;28;20169;-69
2021/04/07 09:26:25;;;;;;;3.10;1.27;;;18.20;49.30;;;;;;5095951;28;20228;-67
2021/04/07 09:28:52;;;;;;;3.97;0.65;;;18.30;49.20;;;;;;5078589;28;20179;-67
2021/04/07 09:31:19;;;;;;;1.95;0.75;;;18.40;50.00;;;;;;5094847;28;20192;-67
2021/04/07 09:33:46;;;;;;;4.88;1.13;;;18.40;49.20;;;;;;5078347;28;20162;-62
2021/04/07 09:36:14;;;;;;;3.38;1.05;;;18.40;49.20;;;;;;5111238;28;20158;-67
2021/04/07 09:38:47;;;;;;;3.80;1.23;;;18.40;49.00;;;;;;5091350;28;20230;-67
2021/04/07 09:41:14;;;;;;;4.32;1.20;;;18.50;48.90;;;;;;5074699;28;20256;-67
2021/04/07 09:43:40;;;;;;;2.63;1.05;;;18.50;48.90;;;;;;5058022;28;20170;-69
2021/04/07 09:46:06;;;;;;;3.63;1.17;;;18.50;48.90;;;;;;5054013;28;20194;-66
2021/04/07 09:48:45;;;;;;;3.20;1.13;;;18.40;48.90;;;;;;5037682;28;20665;-67
2021/04/07 09:51:23;;;;;;;2.90;1.23;;;18.30;49.00;;;;;;5074381;28;20249;-68
2021/04/07 09:53:53;;;;;;;5.32;1.30;;;18.20;49.10;;;;;;5073966;28;20174;-66
2021/04/07 09:56:19;;;;;;;2.13;1.08;;;18.20;49.40;;;;;;5075054;28;20166;-67
2021/04/07 09:58:46;;;;;;;3.92;1.23;;;18.10;49.60;;;;;;5092723;28;20162;-67
2021/04/07 10:01:14;;;;;;;2.20;1.10;;;18.00;49.60;;;;;;5074125;28;20223;-67
2021/04/07 10:03:53;;;;;;;1.73;0.90;;;18.10;49.60;;;;;;5058333;28;20532;-68
2021/04/07 10:06:24;;;;;;;1.60;0.88;;;18.10;49.60;;;;;;5057107;28;20189;-72
2021/04/07 10:09:08;;;;;;;2.72;0.88;;;18.10;49.50;;;;;;5074559;28;20177;-68
2021/04/07 10:11:38;;;;;;;2.35;1.08;;;18.00;49.50;;;;;;5074264;28;20177;-70
2021/04/07 10:14:05;;;;;;;2.75;1.30;;;18.00;49.60;;;;;;5057353;28;20170;-67
2021/04/07 10:16:37;;;;;;;2.22;1.15;;;18.00;49.60;;;;;;5074500;28;20170;-68
2021/04/07 10:19:10;;;;;;;2.40;1.05;;;17.90;49.70;;;;;;5074327;28;20158;-66
2021/04/07 10:21:37;;;;;;;3.33;1.08;;;17.90;49.80;;;;;;5091577;28;20174;-68
2021/04/07 10:24:04;;;;;;;1.85;1.23;;;17.90;49.80;;;;;;5074404;28;20644;-66
2021/04/07 10:26:30;;;;;;;2.25;1.20;;;17.90;49.80;;;;;;5057553;28;20209;-67
2021/04/07 10:29:00;;;;;;;2.67;0.90;;;17.90;49.80;;;;;;5073639;28;20162;-66
2021/04/07 10:31:26;;;;;;;2.40;1.15;;;18.00;49.60;;;;;;5092128;28;20174;-65
2021/04/07 10:34:08;;;;;;;3.25;1.38;;;18.10;49.60;;;;;;5057449;28;20173;-66
2021/04/07 10:36:36;;;;;;;2.28;1.00;;;18.20;49.50;;;;;;5091573;28;20549;-66
2021/04/07 10:39:17;;;;;;;1.95;1.17;;;18.20;49.50;;;;;;5074499;28;20166;-75
2021/04/07 10:41:50;;;;;;;2.40;1.17;;;18.20;49.50;;;;;;5073780;28;20177;-64
2021/04/07 10:44:26;;;;;;;2.20;0.93;;;18.20;49.40;;;;;;5057657;28;20166;-65
2021/04/07 10:46:52;;;;;;;2.63;1.27;;;18.20;49.40;;;;;;5054334;28;20202;-69
2021/04/07 10:49:18;;;;;;;2.72;1.20;;;18.30;49.50;;;;;;5053472;28;20626;-71
2021/04/07 10:51:44;;;;;;;4.32;1.17;;;18.30;50.10;;;;;;5037579;28;20181;-61
2021/04/07 10:54:10;;;;;;;2.20;0.95;;;18.40;49.40;;;;;;5074735;28;20177;-74
2021/04/07 10:56:36;;;;;;;2.28;1.25;;;18.40;50.00;;;;;;5057077;28;20173;-71
2021/04/07 10:59:03;;;;;;;3.65;1.27;;;18.40;49.30;;;;;;5075915;28;20187;-68
2021/04/07 11:01:33;;;;;;;3.05;1.45;;;18.50;49.20;;;;;;5057735;28;20194;-63
2021/04/07 11:04:15;;;;;;;3.63;1.73;;;18.50;49.20;;;;;;5074832;28;20545;-62
2021/04/07 11:06:41;;;;;;;3.22;1.13;;;18.40;49.30;;;;;;5056948;28;20251;-65
2021/04/07 11:09:07;;;;;;;3.47;1.25;;;18.30;49.50;;;;;;5057394;28;20264;-67
2021/04/07 11:11:34;;;;;;;2.92;1.25;;;18.30;49.60;;;;;;5074408;28;20171;-66
2021/04/07 11:14:00;;;;;;;3.03;1.17;;;18.20;49.70;;;;;;5057659;28;20178;-65
2021/04/07 11:16:32;;;;;;;4.05;1.20;;;18.10;49.90;;;;;;5056840;28;20175;-65
2021/04/07 11:18:58;;;;;;;3.50;1.30;;;18.20;50.10;;;;;;5057362;28;20179;-64
2021/04/07 11:21:23;;;;;;;4.05;1.27;;;18.20;50.10;;;;;;5057336;28;20177;-67
2021/04/07 11:23:49;;;;;;;3.38;1.30;;;18.20;50.00;;;;;;5074568;28;20170;-69
2021/04/07 11:26:15;;;;;;;3.78;1.33;;;18.30;50.00;;;;;;5057438;28;20209;-70
2021/04/07 11:28:41;;;;;;;2.47;1.40;;;18.40;49.80;;;;;;5057189;28;20163;-69
2021/04/07 11:31:15;;;;;;;1.67;1.15;;;18.30;49.70;;;;;;5056668;28;20224;-71
2021/04/07 11:33:49;;;;;;;2.00;1.00;;;18.30;49.80;;;;;;5041274;28;20220;-69
2021/04/07 11:46:41;;;;;;;4.28;1.55;;;18.20;50.00;;;;;;5056096;28;20210;-68
2021/04/07 11:49:07;;;;;;;2.83;1.30;;;18.20;50.00;;;;;;5073520;28;20177;-70
2021/04/07 11:51:36;;;;;;;3.78;1.20;;;18.20;50.00;;;;;;5074531;28;20198;-72
2021/04/07 11:54:03;;;;;;;2.42;1.10;;;18.20;50.00;;;;;;5073521;28;20220;-75
2021/04/07 11:56:29;;;;;;;6.75;1.70;;;18.10;50.00;;;;;;5056392;28;20613;-76
2021/04/07 11:58:54;;;;;;;4.65;1.35;;;18.20;50.00;;;;;;5055990;28;20265;-66
2021/04/07 12:01:20;;;;;;;2.85;1.17;;;18.20;49.90;;;;;;5073093;28;20543;-68
2021/04/07 12:03:45;;;;;;;3.70;1.30;;;18.30;50.00;;;;;;5039798;28;20178;-69
2021/04/07 12:06:11;;;;;;;2.92;1.60;;;18.30;50.10;;;;;;5058618;28;20285;-71
2021/04/07 12:08:37;;;;;;;2.72;1.30;;;18.50;50.10;;;;;;5094164;28;20221;-69
2021/04/07 12:11:02;;;;;;;4.88;1.55;;;18.60;49.90;;;;;;5059654;28;20173;-67
2021/04/07 12:13:28;;;;;;;3.58;1.40;;;18.90;49.50;;;;;;5093520;28;20170;-68
2021/04/07 12:15:54;;;;;;;3.03;1.20;;;19.20;49.20;;;;;;5059555;28;20629;-65
2021/04/07 12:18:20;;;;;;;4.28;1.30;;;19.40;48.60;;;;;;5059406;28;20182;-79
2021/04/07 12:20:46;;;;;;;6.03;1.30;;;19.60;48.00;;;;;;5093799;28;20231;-68
2021/04/07 12:23:11;;;;;;;4.10;1.30;;;19.90;47.50;;;;;;5059647;28;20172;-80
2021/04/07 12:25:37;;;;;;;3.28;1.20;;;20.10;47.30;;;;;;5042415;28;20268;-69
2021/04/07 12:28:04;;;;;;;2.50;0.90;;;20.30;47.00;;;;;;5058808;28;20285;-72
2021/04/07 12:30:31;;;;;;;1.65;1.13;;;20.40;46.80;;;;;;5094247;28;20180;-72
2021/04/07 12:32:57;;;;;;;1.95;1.05;;;20.40;46.80;;;;;;5093995;28;20169;-71
2021/04/07 12:35:23;;;;;;;3.50;1.58;;;20.60;46.70;;;;;;5075177;28;20709;-69
2021/04/07 12:37:48;;;;;;;2.83;1.33;;;20.60;46.60;;;;;;5094027;28;20161;-75
2021/04/07 12:40:14;;;;;;;3.15;1.30;;;20.70;46.50;;;;;;5059422;28;20632;-68
2021/04/07 12:42:40;;;;;;;2.80;1.30;;;20.60;46.50;;;;;;5093059;28;20324;-68
2021/04/07 12:45:07;;;;;;;3.45;1.20;;;20.60;46.60;;;;;;5093770;28;20201;-66
2021/04/07 12:47:32;;;;;;;2.92;0.98;;;20.50;46.60;;;;;;5075819;28;20321;-72
2021/04/07 12:49:58;;;;;;;3.60;1.10;;;20.50;46.30;;;;;;5058500;28;20637;-66
2021/04/07 12:52:24;;;;;;;2.90;1.45;;;20.40;46.30;;;;;;5093420;28;20174;-70
2021/04/07 12:54:49;;;;;;;4.72;1.23;;;20.30;46.30;;;;;;5093675;28;20201;-66
2021/04/07 12:57:16;;;;;;;2.92;1.00;;;20.30;46.20;;;;;;5093220;28;20178;-67
2021/04/07 12:59:41;;;;;;;3.08;1.25;;;20.30;46.10;;;;;;5075471;28;20188;-66
2021/04/07 13:02:07;;;;;;;3.20;1.08;;;20.40;45.80;;;;;;5092957;28;21005;-67